sensor_id;sensor_type;location;lat;lon;timestamp;P1;durP1;ratioP1;P2;durP2;ratioP2
819;SDS011;392;48.838;2.322;2022-08-21T00:00:52;6.00;;;5.40;;
819;SDS011;392;48.838;2.322;2022-08-21T00:03:21;5.33;;;4.87;;
819;SDS011;392;48.838;2.322;2022-08-21T00:05:49;5.00;;;4.70;;
819;SDS011;392;48.838;2.322;2022-08-21T00:08:17;5.67;;;5.17;;
819;SDS011;392;48.838;2.322;2022-08-21T00:10:46;6.17;;;5.40;;
819;SDS011;392;48.838;2.322;2022-08-21T00:13:14;6.30;;;5.73;;
819;SDS011;392;48.838;2.322;2022-08-21T00:15:43;4.70;;;4.30;;
819;SDS011;392;48.838;2.322;2022-08-21T00:18:10;5.00;;;4.50;;
819;SDS011;392;48.838;2.322;2022-08-21T00:20:39;6.30;;;4.60;;
819;SDS011;392;48.838;2.322;2022-08-21T00:23:08;6.27;;;4.57;;
819;SDS011;392;48.838;2.322;2022-08-21T00:25:36;5.40;;;4.60;;
819;SDS011;392;48.838;2.322;2022-08-21T00:28:04;7.30;;;4.77;;
819;SDS011;392;48.838;2.322;2022-08-21T00:30:32;4.60;;;4.03;;
819;SDS011;392;48.838;2.322;2022-08-21T00:33:00;8.67;;;4.60;;
819;SDS011;392;48.838;2.322;2022-08-21T00:35:30;5.47;;;4.50;;
819;SDS011;392;48.838;2.322;2022-08-21T00:38:02;5.20;;;3.80;;
819;SDS011;392;48.838;2.322;2022-08-21T00:40:34;7.23;;;4.07;;
819;SDS011;392;48.838;2.322;2022-08-21T00:43:06;4.80;;;4.33;;
819;SDS011;392;48.838;2.322;2022-08-21T00:45:36;4.27;;;3.97;;
819;SDS011;392;48.838;2.322;2022-08-21T00:48:04;5.40;;;3.73;;
819;SDS011;392;48.838;2.322;2022-08-21T00:50:35;4.00;;;3.57;;
819;SDS011;392;48.838;2.322;2022-08-21T00:53:09;4.03;;;3.63;;
819;SDS011;392;48.838;2.322;2022-08-21T00:55:38;6.33;;;4.27;;
819;SDS011;392;48.838;2.322;2022-08-21T00:58:07;4.00;;;3.70;;
819;SDS011;392;48.838;2.322;2022-08-21T01:00:39;3.93;;;3.60;;
819;SDS011;392;48.838;2.322;2022-08-21T01:03:09;4.27;;;3.90;;
819;SDS011;392;48.838;2.322;2022-08-21T01:05:40;4.90;;;4.40;;
819;SDS011;392;48.838;2.322;2022-08-21T01:08:09;3.90;;;3.57;;
819;SDS011;392;48.838;2.322;2022-08-21T01:10:38;4.47;;;3.53;;
819;SDS011;392;48.838;2.322;2022-08-21T01:13:07;3.90;;;3.50;;
819;SDS011;392;48.838;2.322;2022-08-21T01:15:37;4.37;;;3.97;;
819;SDS011;392;48.838;2.322;2022-08-21T01:18:09;5.50;;;3.60;;
819;SDS011;392;48.838;2.322;2022-08-21T01:20:41;4.30;;;3.90;;
819;SDS011;392;48.838;2.322;2022-08-21T01:23:13;3.90;;;3.50;;
819;SDS011;392;48.838;2.322;2022-08-21T01:25:40;4.43;;;3.50;;
819;SDS011;392;48.838;2.322;2022-08-21T01:28:09;5.73;;;3.43;;
819;SDS011;392;48.838;2.322;2022-08-21T01:30:41;4.57;;;3.93;;
819;SDS011;392;48.838;2.322;2022-08-21T01:33:10;4.87;;;3.20;;
819;SDS011;392;48.838;2.322;2022-08-21T01:35:37;4.03;;;3.67;;
819;SDS011;392;48.838;2.322;2022-08-21T01:38:04;4.10;;;3.70;;
819;SDS011;392;48.838;2.322;2022-08-21T01:40:33;4.50;;;4.03;;
819;SDS011;392;48.838;2.322;2022-08-21T01:43:01;8.33;;;3.87;;
819;SDS011;392;48.838;2.322;2022-08-21T01:45:28;4.83;;;3.30;;
819;SDS011;392;48.838;2.322;2022-08-21T01:47:56;6.60;;;3.90;;
819;SDS011;392;48.838;2.322;2022-08-21T01:50:23;4.97;;;4.10;;
819;SDS011;392;48.838;2.322;2022-08-21T01:52:51;4.83;;;3.73;;
819;SDS011;392;48.838;2.322;2022-08-21T01:55:19;3.70;;;3.37;;
819;SDS011;392;48.838;2.322;2022-08-21T01:57:50;3.80;;;3.50;;
819;SDS011;392;48.838;2.322;2022-08-21T02:00:18;4.57;;;3.67;;
819;SDS011;392;48.838;2.322;2022-08-21T02:02:49;3.97;;;3.60;;
819;SDS011;392;48.838;2.322;2022-08-21T02:05:17;4.40;;;3.57;;
819;SDS011;392;48.838;2.322;2022-08-21T02:07:46;3.77;;;3.30;;
819;SDS011;392;48.838;2.322;2022-08-21T02:10:17;5.17;;;3.33;;
819;SDS011;392;48.838;2.322;2022-08-21T02:12:56;3.63;;;3.33;;
819;SDS011;392;48.838;2.322;2022-08-21T02:15:25;3.83;;;3.40;;
819;SDS011;392;48.838;2.322;2022-08-21T02:17:54;4.63;;;3.40;;
819;SDS011;392;48.838;2.322;2022-08-21T02:20:24;6.03;;;3.30;;
819;SDS011;392;48.838;2.322;2022-08-21T02:22:56;3.87;;;3.23;;
819;SDS011;392;48.838;2.322;2022-08-21T02:25:24;4.07;;;3.67;;
819;SDS011;392;48.838;2.322;2022-08-21T02:27:53;3.80;;;3.20;;
819;SDS011;392;48.838;2.322;2022-08-21T02:30:26;4.10;;;3.70;;
819;SDS011;392;48.838;2.322;2022-08-21T02:32:58;7.23;;;4.47;;
819;SDS011;392;48.838;2.322;2022-08-21T02:35:26;3.60;;;3.30;;
819;SDS011;392;48.838;2.322;2022-08-21T02:37:55;3.20;;;3.00;;
819;SDS011;392;48.838;2.322;2022-08-21T02:40:26;4.60;;;3.60;;
819;SDS011;392;48.838;2.322;2022-08-21T02:42:58;10.23;;;4.10;;
819;SDS011;392;48.838;2.322;2022-08-21T02:45:26;3.50;;;3.23;;
819;SDS011;392;48.838;2.322;2022-08-21T02:47:55;4.07;;;3.73;;
819;SDS011;392;48.838;2.322;2022-08-21T02:50:25;6.17;;;3.20;;
819;SDS011;392;48.838;2.322;2022-08-21T02:52:56;4.20;;;3.60;;
819;SDS011;392;48.838;2.322;2022-08-21T02:55:26;5.10;;;3.00;;
819;SDS011;392;48.838;2.322;2022-08-21T02:57:58;3.53;;;3.30;;
819;SDS011;392;48.838;2.322;2022-08-21T03:00:27;4.07;;;3.77;;
819;SDS011;392;48.838;2.322;2022-08-21T03:02:58;4.37;;;3.10;;
819;SDS011;392;48.838;2.322;2022-08-21T03:05:27;5.07;;;3.23;;
819;SDS011;392;48.838;2.322;2022-08-21T03:07:56;5.07;;;3.50;;
819;SDS011;392;48.838;2.322;2022-08-21T03:10:24;4.07;;;3.67;;
819;SDS011;392;48.838;2.322;2022-08-21T03:12:52;3.63;;;3.30;;
819;SDS011;392;48.838;2.322;2022-08-21T03:15:22;3.77;;;3.37;;
819;SDS011;392;48.838;2.322;2022-08-21T03:17:50;3.40;;;3.10;;
819;SDS011;392;48.838;2.322;2022-08-21T03:20:19;3.93;;;3.60;;
819;SDS011;392;48.838;2.322;2022-08-21T03:22:49;5.13;;;3.70;;
819;SDS011;392;48.838;2.322;2022-08-21T03:25:17;4.73;;;3.60;;
819;SDS011;392;48.838;2.322;2022-08-21T03:27:46;3.50;;;3.20;;
819;SDS011;392;48.838;2.322;2022-08-21T03:30:14;4.10;;;3.60;;
819;SDS011;392;48.838;2.322;2022-08-21T03:32:44;4.30;;;2.93;;
819;SDS011;392;48.838;2.322;2022-08-21T03:35:11;4.20;;;3.33;;
819;SDS011;392;48.838;2.322;2022-08-21T03:37:40;3.97;;;3.50;;
819;SDS011;392;48.838;2.322;2022-08-21T03:40:08;3.90;;;3.53;;
819;SDS011;392;48.838;2.322;2022-08-21T03:42:37;5.70;;;3.47;;
819;SDS011;392;48.838;2.322;2022-08-21T03:45:05;3.63;;;3.33;;
819;SDS011;392;48.838;2.322;2022-08-21T03:47:34;4.10;;;3.70;;
819;SDS011;392;48.838;2.322;2022-08-21T03:50:03;4.00;;;3.10;;
819;SDS011;392;48.838;2.322;2022-08-21T03:52:33;3.97;;;3.63;;
819;SDS011;392;48.838;2.322;2022-08-21T03:55:00;4.40;;;3.53;;
819;SDS011;392;48.838;2.322;2022-08-21T03:57:27;4.40;;;4.03;;
819;SDS011;392;48.838;2.322;2022-08-21T03:59:54;5.53;;;3.60;;
819;SDS011;392;48.838;2.322;2022-08-21T04:02:22;6.80;;;3.87;;
819;SDS011;392;48.838;2.322;2022-08-21T04:04:49;3.83;;;3.53;;
819;SDS011;392;48.838;2.322;2022-08-21T04:07:17;4.70;;;4.17;;
819;SDS011;392;48.838;2.322;2022-08-21T04:09:45;4.10;;;3.70;;
819;SDS011;392;48.838;2.322;2022-08-21T04:12:12;5.23;;;4.43;;
819;SDS011;392;48.838;2.322;2022-08-21T04:14:39;4.53;;;4.13;;
819;SDS011;392;48.838;2.322;2022-08-21T04:17:07;5.37;;;4.87;;
819;SDS011;392;48.838;2.322;2022-08-21T04:19:34;5.47;;;4.67;;
819;SDS011;392;48.838;2.322;2022-08-21T04:22:01;4.83;;;4.43;;
819;SDS011;392;48.838;2.322;2022-08-21T04:24:30;5.47;;;4.13;;
819;SDS011;392;48.838;2.322;2022-08-21T04:26:57;4.90;;;4.40;;
819;SDS011;392;48.838;2.322;2022-08-21T04:29:25;9.33;;;5.07;;
819;SDS011;392;48.838;2.322;2022-08-21T04:31:52;4.53;;;3.90;;
819;SDS011;392;48.838;2.322;2022-08-21T04:34:19;4.60;;;4.30;;
819;SDS011;392;48.838;2.322;2022-08-21T04:36:46;7.23;;;4.63;;
819;SDS011;392;48.838;2.322;2022-08-21T04:39:14;4.93;;;4.50;;
819;SDS011;392;48.838;2.322;2022-08-21T04:41:42;4.27;;;3.70;;
819;SDS011;392;48.838;2.322;2022-08-21T04:44:09;4.43;;;3.97;;
819;SDS011;392;48.838;2.322;2022-08-21T04:46:37;4.50;;;4.20;;
819;SDS011;392;48.838;2.322;2022-08-21T04:49:04;5.20;;;4.67;;
819;SDS011;392;48.838;2.322;2022-08-21T04:51:32;5.80;;;3.97;;
819;SDS011;392;48.838;2.322;2022-08-21T04:54:05;5.00;;;4.50;;
819;SDS011;392;48.838;2.322;2022-08-21T04:56:37;4.73;;;3.87;;
819;SDS011;392;48.838;2.322;2022-08-21T04:59:11;4.87;;;4.47;;
819;SDS011;392;48.838;2.322;2022-08-21T05:01:42;5.07;;;4.57;;
819;SDS011;392;48.838;2.322;2022-08-21T05:04:12;5.47;;;3.97;;
819;SDS011;392;48.838;2.322;2022-08-21T05:06:43;4.70;;;4.30;;
819;SDS011;392;48.838;2.322;2022-08-21T05:09:13;4.20;;;3.90;;
819;SDS011;392;48.838;2.322;2022-08-21T05:11:44;6.13;;;4.50;;
819;SDS011;392;48.838;2.322;2022-08-21T05:14:12;4.57;;;4.23;;
819;SDS011;392;48.838;2.322;2022-08-21T05:16:40;6.37;;;4.50;;
819;SDS011;392;48.838;2.322;2022-08-21T05:19:09;5.03;;;4.53;;
819;SDS011;392;48.838;2.322;2022-08-21T05:21:37;5.03;;;3.83;;
819;SDS011;392;48.838;2.322;2022-08-21T05:24:07;5.83;;;4.23;;
819;SDS011;392;48.838;2.322;2022-08-21T05:26:35;5.97;;;4.20;;
819;SDS011;392;48.838;2.322;2022-08-21T05:29:05;4.83;;;4.43;;
819;SDS011;392;48.838;2.322;2022-08-21T05:31:33;8.27;;;4.30;;
819;SDS011;392;48.838;2.322;2022-08-21T05:34:00;5.10;;;4.20;;
819;SDS011;392;48.838;2.322;2022-08-21T05:36:27;5.70;;;4.33;;
819;SDS011;392;48.838;2.322;2022-08-21T05:38:55;5.23;;;4.57;;
819;SDS011;392;48.838;2.322;2022-08-21T05:41:22;5.87;;;5.33;;
819;SDS011;392;48.838;2.322;2022-08-21T05:43:49;5.43;;;5.00;;
819;SDS011;392;48.838;2.322;2022-08-21T05:46:18;4.70;;;4.30;;
819;SDS011;392;48.838;2.322;2022-08-21T05:48:45;6.80;;;4.40;;
819;SDS011;392;48.838;2.322;2022-08-21T05:51:13;6.43;;;5.10;;
819;SDS011;392;48.838;2.322;2022-08-21T05:53:42;4.60;;;4.20;;
819;SDS011;392;48.838;2.322;2022-08-21T05:56:10;4.93;;;4.50;;
819;SDS011;392;48.838;2.322;2022-08-21T05:58:39;7.17;;;4.60;;
819;SDS011;392;48.838;2.322;2022-08-21T06:01:08;4.23;;;3.83;;
819;SDS011;392;48.838;2.322;2022-08-21T06:03:39;4.30;;;4.00;;
819;SDS011;392;48.838;2.322;2022-08-21T06:06:08;5.67;;;4.47;;
819;SDS011;392;48.838;2.322;2022-08-21T06:08:36;4.67;;;4.27;;
819;SDS011;392;48.838;2.322;2022-08-21T06:11:04;5.93;;;4.10;;
819;SDS011;392;48.838;2.322;2022-08-21T06:13:32;4.73;;;4.17;;
819;SDS011;392;48.838;2.322;2022-08-21T06:16:01;6.53;;;4.70;;
819;SDS011;392;48.838;2.322;2022-08-21T06:18:32;4.83;;;4.17;;
819;SDS011;392;48.838;2.322;2022-08-21T06:21:01;7.00;;;4.53;;
819;SDS011;392;48.838;2.322;2022-08-21T06:23:29;5.23;;;4.73;;
819;SDS011;392;48.838;2.322;2022-08-21T06:25:57;5.80;;;5.20;;
819;SDS011;392;48.838;2.322;2022-08-21T06:28:24;6.33;;;4.93;;
819;SDS011;392;48.838;2.322;2022-08-21T06:30:52;6.50;;;5.20;;
819;SDS011;392;48.838;2.322;2022-08-21T06:33:19;6.20;;;4.40;;
819;SDS011;392;48.838;2.322;2022-08-21T06:35:46;8.83;;;5.00;;
819;SDS011;392;48.838;2.322;2022-08-21T06:38:15;5.73;;;5.03;;
819;SDS011;392;48.838;2.322;2022-08-21T06:40:43;5.50;;;5.00;;
819;SDS011;392;48.838;2.322;2022-08-21T06:43:11;5.13;;;4.83;;
819;SDS011;392;48.838;2.322;2022-08-21T06:45:41;5.30;;;4.90;;
819;SDS011;392;48.838;2.322;2022-08-21T06:48:09;5.53;;;4.90;;
819;SDS011;392;48.838;2.322;2022-08-21T06:50:37;5.40;;;5.00;;
819;SDS011;392;48.838;2.322;2022-08-21T06:53:05;5.87;;;5.27;;
819;SDS011;392;48.838;2.322;2022-08-21T06:55:36;6.93;;;5.63;;
819;SDS011;392;48.838;2.322;2022-08-21T06:58:05;5.87;;;5.23;;
819;SDS011;392;48.838;2.322;2022-08-21T07:00:33;5.80;;;5.10;;
819;SDS011;392;48.838;2.322;2022-08-21T07:03:02;6.57;;;5.87;;
819;SDS011;392;48.838;2.322;2022-08-21T07:05:29;6.20;;;5.63;;
819;SDS011;392;48.838;2.322;2022-08-21T07:07:57;7.97;;;5.57;;
819;SDS011;392;48.838;2.322;2022-08-21T07:10:25;5.93;;;5.33;;
819;SDS011;392;48.838;2.322;2022-08-21T07:12:54;5.70;;;5.30;;
819;SDS011;392;48.838;2.322;2022-08-21T07:15:21;5.50;;;5.10;;
819;SDS011;392;48.838;2.322;2022-08-21T07:17:49;5.93;;;5.23;;
819;SDS011;392;48.838;2.322;2022-08-21T07:20:16;6.23;;;5.63;;
819;SDS011;392;48.838;2.322;2022-08-21T07:22:43;5.53;;;5.10;;
819;SDS011;392;48.838;2.322;2022-08-21T07:25:11;5.63;;;5.13;;
819;SDS011;392;48.838;2.322;2022-08-21T07:27:38;6.20;;;5.60;;
819;SDS011;392;48.838;2.322;2022-08-21T07:30:09;8.50;;;6.00;;
819;SDS011;392;48.838;2.322;2022-08-21T07:32:37;5.70;;;5.17;;
819;SDS011;392;48.838;2.322;2022-08-21T07:35:04;8.27;;;7.47;;
819;SDS011;392;48.838;2.322;2022-08-21T07:37:32;6.27;;;5.70;;
819;SDS011;392;48.838;2.322;2022-08-21T07:40:00;7.00;;;6.40;;
819;SDS011;392;48.838;2.322;2022-08-21T07:42:27;6.70;;;6.10;;
819;SDS011;392;48.838;2.322;2022-08-21T07:44:55;6.70;;;6.30;;
819;SDS011;392;48.838;2.322;2022-08-21T07:47:24;5.70;;;5.40;;
819;SDS011;392;48.838;2.322;2022-08-21T07:49:51;6.27;;;5.87;;
819;SDS011;392;48.838;2.322;2022-08-21T07:52:18;7.10;;;6.60;;
819;SDS011;392;48.838;2.322;2022-08-21T07:54:46;7.00;;;6.60;;
819;SDS011;392;48.838;2.322;2022-08-21T07:57:13;7.47;;;6.83;;
819;SDS011;392;48.838;2.322;2022-08-21T07:59:41;6.03;;;5.73;;
819;SDS011;392;48.838;2.322;2022-08-21T08:02:08;6.40;;;5.80;;
819;SDS011;392;48.838;2.322;2022-08-21T08:04:36;7.67;;;6.93;;
819;SDS011;392;48.838;2.322;2022-08-21T08:07:04;7.30;;;6.60;;
819;SDS011;392;48.838;2.322;2022-08-21T08:09:31;7.30;;;6.70;;
819;SDS011;392;48.838;2.322;2022-08-21T08:11:58;7.10;;;6.60;;
819;SDS011;392;48.838;2.322;2022-08-21T08:14:26;7.73;;;7.03;;
819;SDS011;392;48.838;2.322;2022-08-21T08:16:53;7.10;;;6.50;;
819;SDS011;392;48.838;2.322;2022-08-21T08:19:21;7.50;;;7.00;;
819;SDS011;392;48.838;2.322;2022-08-21T08:21:49;6.53;;;6.13;;
819;SDS011;392;48.838;2.322;2022-08-21T08:24:17;7.20;;;6.60;;
819;SDS011;392;48.838;2.322;2022-08-21T08:26:44;6.93;;;6.37;;
819;SDS011;392;48.838;2.322;2022-08-21T08:29:12;5.83;;;5.43;;
819;SDS011;392;48.838;2.322;2022-08-21T08:31:39;6.90;;;6.40;;
819;SDS011;392;48.838;2.322;2022-08-21T08:34:07;6.87;;;6.37;;
819;SDS011;392;48.838;2.322;2022-08-21T08:36:35;7.33;;;6.57;;
819;SDS011;392;48.838;2.322;2022-08-21T08:39:05;6.83;;;6.23;;
819;SDS011;392;48.838;2.322;2022-08-21T08:41:32;6.57;;;6.20;;
819;SDS011;392;48.838;2.322;2022-08-21T08:44:01;6.47;;;5.90;;
819;SDS011;392;48.838;2.322;2022-08-21T08:46:34;6.50;;;5.93;;
819;SDS011;392;48.838;2.322;2022-08-21T08:49:11;6.60;;;6.00;;
819;SDS011;392;48.838;2.322;2022-08-21T08:51:43;6.00;;;5.50;;
819;SDS011;392;48.838;2.322;2022-08-21T08:54:17;6.80;;;6.30;;
819;SDS011;392;48.838;2.322;2022-08-21T08:56:57;6.67;;;6.17;;
819;SDS011;392;48.838;2.322;2022-08-21T08:59:26;6.23;;;5.73;;
819;SDS011;392;48.838;2.322;2022-08-21T09:01:59;5.90;;;5.40;;
819;SDS011;392;48.838;2.322;2022-08-21T09:04:26;6.73;;;6.13;;
819;SDS011;392;48.838;2.322;2022-08-21T09:07:01;6.73;;;6.13;;
819;SDS011;392;48.838;2.322;2022-08-21T09:09:46;6.67;;;6.17;;
819;SDS011;392;48.838;2.322;2022-08-21T09:12:25;7.50;;;6.60;;
819;SDS011;392;48.838;2.322;2022-08-21T09:15:08;6.40;;;6.00;;
819;SDS011;392;48.838;2.322;2022-08-21T09:17:53;6.70;;;6.10;;
819;SDS011;392;48.838;2.322;2022-08-21T09:20:48;6.87;;;6.40;;
819;SDS011;392;48.838;2.322;2022-08-21T09:23:29;7.30;;;7.00;;
819;SDS011;392;48.838;2.322;2022-08-21T09:26:13;7.30;;;6.80;;
819;SDS011;392;48.838;2.322;2022-08-21T09:28:43;7.03;;;6.63;;
819;SDS011;392;48.838;2.322;2022-08-21T09:31:16;7.23;;;6.83;;
819;SDS011;392;48.838;2.322;2022-08-21T09:33:49;6.80;;;6.40;;
819;SDS011;392;48.838;2.322;2022-08-21T09:36:22;6.10;;;5.80;;
819;SDS011;392;48.838;2.322;2022-08-21T09:38:55;6.63;;;6.13;;
819;SDS011;392;48.838;2.322;2022-08-21T09:41:31;6.87;;;6.37;;
819;SDS011;392;48.838;2.322;2022-08-21T09:44:01;6.47;;;6.07;;
819;SDS011;392;48.838;2.322;2022-08-21T09:46:29;7.43;;;6.93;;
819;SDS011;392;48.838;2.322;2022-08-21T09:48:57;7.57;;;7.00;;
819;SDS011;392;48.838;2.322;2022-08-21T09:51:28;7.70;;;7.20;;
819;SDS011;392;48.838;2.322;2022-08-21T09:54:11;7.43;;;6.50;;
819;SDS011;392;48.838;2.322;2022-08-21T09:56:53;7.10;;;6.73;;
819;SDS011;392;48.838;2.322;2022-08-21T09:59:41;7.73;;;7.33;;
819;SDS011;392;48.838;2.322;2022-08-21T10:02:19;8.17;;;7.70;;
819;SDS011;392;48.838;2.322;2022-08-21T10:04:53;9.70;;;9.20;;
819;SDS011;392;48.838;2.322;2022-08-21T10:07:24;8.23;;;7.83;;
819;SDS011;392;48.838;2.322;2022-08-21T10:09:58;8.50;;;8.07;;
819;SDS011;392;48.838;2.322;2022-08-21T10:12:31;7.90;;;7.40;;
819;SDS011;392;48.838;2.322;2022-08-21T10:15:11;8.13;;;7.63;;
819;SDS011;392;48.838;2.322;2022-08-21T10:17:48;8.37;;;7.90;;
819;SDS011;392;48.838;2.322;2022-08-21T10:20:25;7.73;;;7.33;;
819;SDS011;392;48.838;2.322;2022-08-21T10:23:07;7.87;;;7.40;;
819;SDS011;392;48.838;2.322;2022-08-21T10:26:04;6.20;;;5.90;;
819;SDS011;392;48.838;2.322;2022-08-21T10:28:50;7.03;;;6.43;;
819;SDS011;392;48.838;2.322;2022-08-21T10:31:29;6.50;;;6.00;;
819;SDS011;392;48.838;2.322;2022-08-21T10:34:07;6.43;;;6.00;;
819;SDS011;392;48.838;2.322;2022-08-21T10:36:53;5.90;;;5.40;;
819;SDS011;392;48.838;2.322;2022-08-21T10:39:33;5.47;;;5.20;;
819;SDS011;392;48.838;2.322;2022-08-21T10:42:08;5.13;;;4.90;;
819;SDS011;392;48.838;2.322;2022-08-21T10:45:08;5.53;;;5.03;;
819;SDS011;392;48.838;2.322;2022-08-21T10:47:53;5.83;;;5.40;;
819;SDS011;392;48.838;2.322;2022-08-21T10:50:25;6.20;;;5.60;;
819;SDS011;392;48.838;2.322;2022-08-21T10:53:08;5.67;;;5.30;;
819;SDS011;392;48.838;2.322;2022-08-21T10:55:51;5.40;;;5.10;;
819;SDS011;392;48.838;2.322;2022-08-21T10:58:25;6.83;;;6.23;;
819;SDS011;392;48.838;2.322;2022-08-21T11:00:58;6.60;;;6.03;;
819;SDS011;392;48.838;2.322;2022-08-21T11:03:38;6.60;;;6.10;;
819;SDS011;392;48.838;2.322;2022-08-21T11:06:09;7.20;;;6.70;;
819;SDS011;392;48.838;2.322;2022-08-21T11:08:42;7.03;;;6.50;;
819;SDS011;392;48.838;2.322;2022-08-21T11:11:12;5.90;;;5.50;;
819;SDS011;392;48.838;2.322;2022-08-21T11:13:46;6.33;;;5.83;;
819;SDS011;392;48.838;2.322;2022-08-21T11:16:21;6.73;;;6.30;;
819;SDS011;392;48.838;2.322;2022-08-21T11:19:02;6.80;;;6.20;;
819;SDS011;392;48.838;2.322;2022-08-21T11:21:37;6.20;;;5.80;;
819;SDS011;392;48.838;2.322;2022-08-21T11:24:14;8.17;;;7.27;;
819;SDS011;392;48.838;2.322;2022-08-21T11:26:52;6.53;;;6.03;;
819;SDS011;392;48.838;2.322;2022-08-21T11:29:27;5.93;;;5.53;;
819;SDS011;392;48.838;2.322;2022-08-21T11:32:07;6.50;;;6.00;;
819;SDS011;392;48.838;2.322;2022-08-21T11:35:09;6.00;;;5.63;;
819;SDS011;392;48.838;2.322;2022-08-21T11:37:49;8.50;;;7.70;;
819;SDS011;392;48.838;2.322;2022-08-21T11:40:33;7.70;;;7.30;;
819;SDS011;392;48.838;2.322;2022-08-21T11:43:11;8.20;;;7.60;;
819;SDS011;392;48.838;2.322;2022-08-21T11:45:44;8.27;;;7.77;;
819;SDS011;392;48.838;2.322;2022-08-21T11:48:20;7.43;;;7.13;;
819;SDS011;392;48.838;2.322;2022-08-21T11:51:03;6.60;;;6.40;;
819;SDS011;392;48.838;2.322;2022-08-21T11:53:36;7.27;;;6.87;;
819;SDS011;392;48.838;2.322;2022-08-21T11:56:17;6.57;;;6.27;;
819;SDS011;392;48.838;2.322;2022-08-21T11:58:49;7.87;;;7.57;;
819;SDS011;392;48.838;2.322;2022-08-21T12:01:22;9.13;;;8.63;;
819;SDS011;392;48.838;2.322;2022-08-21T12:03:54;9.80;;;9.37;;
819;SDS011;392;48.838;2.322;2022-08-21T12:06:28;7.60;;;7.40;;
819;SDS011;392;48.838;2.322;2022-08-21T12:08:59;6.57;;;6.30;;
819;SDS011;392;48.838;2.322;2022-08-21T12:11:30;6.30;;;6.10;;
819;SDS011;392;48.838;2.322;2022-08-21T12:13:59;6.90;;;6.70;;
819;SDS011;392;48.838;2.322;2022-08-21T12:16:40;5.50;;;5.20;;
819;SDS011;392;48.838;2.322;2022-08-21T12:19:12;6.43;;;6.23;;
819;SDS011;392;48.838;2.322;2022-08-21T12:21:57;6.20;;;6.00;;
819;SDS011;392;48.838;2.322;2022-08-21T12:24:36;6.37;;;6.07;;
819;SDS011;392;48.838;2.322;2022-08-21T12:27:17;5.80;;;5.70;;
819;SDS011;392;48.838;2.322;2022-08-21T12:29:52;6.07;;;5.87;;
819;SDS011;392;48.838;2.322;2022-08-21T12:32:24;7.60;;;7.40;;
819;SDS011;392;48.838;2.322;2022-08-21T12:34:57;6.43;;;6.23;;
819;SDS011;392;48.838;2.322;2022-08-21T12:37:34;6.20;;;6.00;;
819;SDS011;392;48.838;2.322;2022-08-21T12:40:10;5.93;;;5.73;;
819;SDS011;392;48.838;2.322;2022-08-21T12:42:44;7.20;;;6.90;;
819;SDS011;392;48.838;2.322;2022-08-21T12:45:17;5.60;;;5.40;;
819;SDS011;392;48.838;2.322;2022-08-21T12:47:48;5.83;;;5.63;;
819;SDS011;392;48.838;2.322;2022-08-21T12:50:24;4.80;;;4.60;;
819;SDS011;392;48.838;2.322;2022-08-21T12:53:02;5.30;;;5.10;;
819;SDS011;392;48.838;2.322;2022-08-21T12:55:35;4.57;;;4.47;;
819;SDS011;392;48.838;2.322;2022-08-21T12:58:16;4.73;;;4.53;;
819;SDS011;392;48.838;2.322;2022-08-21T13:00:47;4.53;;;4.23;;
819;SDS011;392;48.838;2.322;2022-08-21T13:03:17;4.30;;;4.10;;
819;SDS011;392;48.838;2.322;2022-08-21T13:05:46;3.90;;;3.43;;
819;SDS011;392;48.838;2.322;2022-08-21T13:08:16;3.90;;;3.80;;
819;SDS011;392;48.838;2.322;2022-08-21T13:10:47;3.43;;;3.30;;
819;SDS011;392;48.838;2.322;2022-08-21T13:13:17;4.40;;;4.30;;
819;SDS011;392;48.838;2.322;2022-08-21T13:15:48;4.27;;;4.17;;
819;SDS011;392;48.838;2.322;2022-08-21T13:18:19;4.77;;;4.67;;
819;SDS011;392;48.838;2.322;2022-08-21T13:20:51;4.17;;;3.97;;
819;SDS011;392;48.838;2.322;2022-08-21T13:23:30;3.40;;;3.30;;
819;SDS011;392;48.838;2.322;2022-08-21T13:25:58;3.70;;;3.53;;
819;SDS011;392;48.838;2.322;2022-08-21T13:28:31;4.17;;;3.97;;
819;SDS011;392;48.838;2.322;2022-08-21T13:31:05;4.07;;;3.97;;
819;SDS011;392;48.838;2.322;2022-08-21T13:33:35;4.07;;;3.97;;
819;SDS011;392;48.838;2.322;2022-08-21T13:36:07;3.77;;;3.67;;
819;SDS011;392;48.838;2.322;2022-08-21T13:38:40;3.37;;;3.37;;
819;SDS011;392;48.838;2.322;2022-08-21T13:41:16;3.10;;;3.10;;
819;SDS011;392;48.838;2.322;2022-08-21T13:43:49;3.30;;;3.30;;
819;SDS011;392;48.838;2.322;2022-08-21T13:46:23;4.10;;;4.00;;
819;SDS011;392;48.838;2.322;2022-08-21T13:48:54;4.00;;;3.90;;
819;SDS011;392;48.838;2.322;2022-08-21T13:51:24;4.73;;;4.57;;
819;SDS011;392;48.838;2.322;2022-08-21T13:53:51;3.70;;;3.70;;
819;SDS011;392;48.838;2.322;2022-08-21T13:56:21;4.37;;;4.27;;
819;SDS011;392;48.838;2.322;2022-08-21T13:58:50;3.90;;;3.80;;
819;SDS011;392;48.838;2.322;2022-08-21T14:01:22;3.90;;;3.80;;
819;SDS011;392;48.838;2.322;2022-08-21T14:03:54;3.70;;;3.60;;
819;SDS011;392;48.838;2.322;2022-08-21T14:06:32;3.40;;;3.30;;
819;SDS011;392;48.838;2.322;2022-08-21T14:09:07;3.47;;;3.37;;
819;SDS011;392;48.838;2.322;2022-08-21T14:11:37;3.27;;;3.17;;
819;SDS011;392;48.838;2.322;2022-08-21T14:14:06;3.40;;;3.30;;
819;SDS011;392;48.838;2.322;2022-08-21T14:16:52;3.67;;;3.50;;
819;SDS011;392;48.838;2.322;2022-08-21T14:19:22;2.73;;;2.70;;
819;SDS011;392;48.838;2.322;2022-08-21T14:21:53;3.30;;;3.20;;
819;SDS011;392;48.838;2.322;2022-08-21T14:24:27;3.37;;;3.20;;
819;SDS011;392;48.838;2.322;2022-08-21T14:26:57;3.07;;;2.97;;
819;SDS011;392;48.838;2.322;2022-08-21T14:29:32;3.43;;;3.23;;
819;SDS011;392;48.838;2.322;2022-08-21T14:32:08;3.57;;;3.43;;
819;SDS011;392;48.838;2.322;2022-08-21T14:34:38;2.97;;;2.87;;
819;SDS011;392;48.838;2.322;2022-08-21T14:37:07;2.80;;;2.80;;
819;SDS011;392;48.838;2.322;2022-08-21T14:39:34;2.70;;;2.60;;
819;SDS011;392;48.838;2.322;2022-08-21T14:42:02;2.47;;;2.40;;
819;SDS011;392;48.838;2.322;2022-08-21T14:44:30;2.30;;;2.30;;
819;SDS011;392;48.838;2.322;2022-08-21T14:46:58;2.67;;;2.57;;
819;SDS011;392;48.838;2.322;2022-08-21T14:49:27;2.80;;;2.70;;
819;SDS011;392;48.838;2.322;2022-08-21T14:51:55;2.30;;;2.30;;
819;SDS011;392;48.838;2.322;2022-08-21T14:54:24;2.30;;;2.20;;
819;SDS011;392;48.838;2.322;2022-08-21T14:56:53;2.30;;;2.20;;
819;SDS011;392;48.838;2.322;2022-08-21T14:59:21;2.90;;;2.80;;
819;SDS011;392;48.838;2.322;2022-08-21T15:01:48;2.97;;;2.77;;
819;SDS011;392;48.838;2.322;2022-08-21T15:04:17;2.83;;;2.73;;
819;SDS011;392;48.838;2.322;2022-08-21T15:06:44;3.50;;;3.40;;
819;SDS011;392;48.838;2.322;2022-08-21T15:09:12;2.87;;;2.77;;
819;SDS011;392;48.838;2.322;2022-08-21T15:11:40;3.40;;;3.30;;
819;SDS011;392;48.838;2.322;2022-08-21T15:14:10;3.00;;;2.90;;
819;SDS011;392;48.838;2.322;2022-08-21T15:16:44;3.70;;;3.50;;
819;SDS011;392;48.838;2.322;2022-08-21T15:19:11;3.80;;;3.60;;
819;SDS011;392;48.838;2.322;2022-08-21T15:21:39;3.57;;;3.30;;
819;SDS011;392;48.838;2.322;2022-08-21T15:24:06;2.80;;;2.70;;
819;SDS011;392;48.838;2.322;2022-08-21T15:26:34;2.97;;;2.87;;
819;SDS011;392;48.838;2.322;2022-08-21T15:29:03;3.40;;;3.30;;
819;SDS011;392;48.838;2.322;2022-08-21T15:31:33;3.53;;;3.33;;
819;SDS011;392;48.838;2.322;2022-08-21T15:34:01;3.10;;;2.90;;
819;SDS011;392;48.838;2.322;2022-08-21T15:36:29;2.80;;;2.67;;
819;SDS011;392;48.838;2.322;2022-08-21T15:38:56;3.07;;;2.97;;
819;SDS011;392;48.838;2.322;2022-08-21T15:41:23;2.80;;;2.70;;
819;SDS011;392;48.838;2.322;2022-08-21T15:43:51;3.23;;;3.03;;
819;SDS011;392;48.838;2.322;2022-08-21T15:46:21;3.00;;;2.90;;
819;SDS011;392;48.838;2.322;2022-08-21T15:48:48;3.60;;;3.47;;
819;SDS011;392;48.838;2.322;2022-08-21T15:51:16;3.10;;;2.93;;
819;SDS011;392;48.838;2.322;2022-08-21T15:53:43;3.40;;;3.20;;
819;SDS011;392;48.838;2.322;2022-08-21T15:56:14;3.37;;;3.27;;
819;SDS011;392;48.838;2.322;2022-08-21T15:59:27;3.40;;;3.20;;
819;SDS011;392;48.838;2.322;2022-08-21T16:02:00;3.40;;;3.20;;
819;SDS011;392;48.838;2.322;2022-08-21T16:04:27;2.20;;;2.20;;
819;SDS011;392;48.838;2.322;2022-08-21T16:06:55;2.90;;;2.80;;
819;SDS011;392;48.838;2.322;2022-08-21T16:09:22;3.20;;;3.00;;